createdAt,value
2022-09-25T00:01:19.422Z,9.90
2022-09-25T00:03:47.957Z,10.50
2022-09-25T00:06:19.684Z,10.60
2022-09-25T00:08:47.902Z,10.20
2022-09-25T00:11:20.130Z,9.83
2022-09-25T00:13:48.576Z,10.00
2022-09-25T00:16:19.292Z,9.47
2022-09-25T00:19:05.131Z,10.50
2022-09-25T00:21:36.084Z,11.50
2022-09-25T00:24:06.610Z,11.20
2022-09-25T00:26:36.643Z,11.43
2022-09-25T00:29:06.101Z,12.13
2022-09-25T00:31:35.084Z,10.70
2022-09-25T00:34:05.685Z,11.00
2022-09-25T00:36:35.121Z,10.70
2022-09-25T00:39:03.101Z,11.10
2022-09-25T00:41:32.286Z,11.67
2022-09-25T00:44:01.636Z,11.40
2022-09-25T00:46:32.748Z,12.67
2022-09-25T00:49:03.578Z,12.17
2022-09-25T00:51:41.205Z,12.93
2022-09-25T00:54:15.121Z,11.70
2022-09-25T00:56:45.627Z,11.90
2022-09-25T00:59:18.579Z,12.83
2022-09-25T01:01:47.097Z,11.93
2022-09-25T01:04:15.545Z,11.57
2022-09-25T01:06:44.913Z,11.77
2022-09-25T01:09:13.071Z,11.53
2022-09-25T01:11:40.953Z,11.93
2022-09-25T01:14:10.444Z,11.83
2022-09-25T01:16:43.767Z,10.90
2022-09-25T01:19:20.601Z,11.27
2022-09-25T01:21:54.588Z,11.70
2022-09-25T01:24:44.095Z,10.87
2022-09-25T01:27:22.302Z,10.80
2022-09-25T01:29:58.716Z,9.63
2022-09-25T01:32:32.864Z,10.40
2022-09-25T01:35:03.377Z,9.50
2022-09-25T01:37:34.789Z,10.13
2022-09-25T01:40:08.820Z,10.43
2022-09-25T01:42:41.239Z,10.10
2022-09-25T01:45:17.204Z,9.97
2022-09-25T01:47:50.200Z,10.00
2022-09-25T01:50:24.653Z,9.63
2022-09-25T01:52:55.737Z,10.20
2022-09-25T01:55:27.783Z,9.53
2022-09-25T01:58:01.991Z,9.47
2022-09-25T02:00:31.524Z,9.87
2022-09-25T02:03:13.158Z,8.97
2022-09-25T02:05:46.282Z,9.27
2022-09-25T02:08:19.251Z,9.20
2022-09-25T02:10:51.348Z,9.40
2022-09-25T02:13:20.933Z,8.93
2022-09-25T02:15:56.122Z,9.53
2022-09-25T02:18:43.211Z,8.60
2022-09-25T02:21:18.143Z,9.77
2022-09-25T02:23:53.324Z,8.70
2022-09-25T02:26:27.732Z,8.73
2022-09-25T02:28:56.127Z,9.50
2022-09-25T02:31:31.507Z,8.93
2022-09-25T02:33:59.671Z,8.97
2022-09-25T02:36:27.642Z,9.33
2022-09-25T02:38:57.194Z,9.50
2022-09-25T02:41:41.185Z,9.57
2022-09-25T02:44:18.278Z,9.43
2022-09-25T02:47:00.983Z,10.07
2022-09-25T02:49:37.940Z,9.77
2022-09-25T02:52:10.608Z,9.37
2022-09-25T02:54:45.679Z,9.70
2022-09-25T02:57:21.754Z,9.30
2022-09-25T02:59:54.716Z,9.53
2022-09-25T03:02:25.958Z,9.37
2022-09-25T03:04:54.793Z,9.03
2022-09-25T03:07:23.097Z,8.87
2022-09-25T03:09:53.628Z,8.73
2022-09-25T03:12:21.623Z,9.00
2022-09-25T03:14:49.844Z,8.63
2022-09-25T03:17:20.056Z,9.07
2022-09-25T03:19:49.276Z,9.53
2022-09-25T03:22:20.987Z,10.13
2022-09-25T03:24:50.901Z,9.37
2022-09-25T03:27:19.675Z,9.27
2022-09-25T03:29:48.593Z,9.53
2022-09-25T03:32:16.566Z,10.00
2022-09-25T03:34:44.374Z,10.10
2022-09-25T03:37:13.545Z,10.03
2022-09-25T03:39:41.486Z,10.03
2022-09-25T03:42:09.337Z,10.43
2022-09-25T03:44:37.236Z,9.70
2022-09-25T03:47:05.297Z,10.80
2022-09-25T03:49:33.165Z,10.63
2022-09-25T03:52:01.048Z,10.80
2022-09-25T03:54:30.254Z,10.83
2022-09-25T03:56:58.098Z,10.80
2022-09-25T03:59:26.851Z,11.07
2022-09-25T04:01:55.254Z,10.17
2022-09-25T04:04:23.260Z,10.23
2022-09-25T04:06:51.115Z,10.03
2022-09-25T04:09:19.055Z,11.03
2022-09-25T04:11:48.267Z,9.93
2022-09-25T04:14:16.241Z,9.70
2022-09-25T04:16:44.170Z,9.40
2022-09-25T04:19:12.187Z,10.20
2022-09-25T04:21:40.031Z,10.50
2022-09-25T04:24:25.681Z,10.20
2022-09-25T04:26:54.895Z,10.10
2022-09-25T04:29:23.248Z,9.17
2022-09-25T04:32:11.160Z,9.57
2022-09-25T04:34:38.110Z,9.80
2022-09-25T04:37:05.935Z,9.60
2022-09-25T04:39:33.807Z,10.13
2022-09-25T04:42:03.048Z,10.30
2022-09-25T04:44:31.076Z,10.07
2022-09-25T04:46:59.081Z,9.50
2022-09-25T04:49:26.925Z,9.87
2022-09-25T04:51:56.181Z,10.07
2022-09-25T04:54:24.245Z,9.77
2022-09-25T04:56:52.470Z,9.53
2022-09-25T04:59:21.957Z,9.70
2022-09-25T05:01:49.978Z,10.23
2022-09-25T05:04:17.947Z,10.00
2022-09-25T05:06:45.786Z,9.90
2022-09-25T05:09:13.639Z,9.70
2022-09-25T05:11:41.601Z,10.27
2022-09-25T05:14:09.653Z,10.87
2022-09-25T05:16:39.029Z,10.07
2022-09-25T05:19:07.049Z,9.83
2022-09-25T05:21:35.030Z,10.77
2022-09-25T05:24:03.271Z,10.30
2022-09-25T05:26:34.358Z,10.63
2022-09-25T05:29:02.570Z,9.87
2022-09-25T05:31:30.856Z,10.10
2022-09-25T05:34:00.109Z,10.67
2022-09-25T05:36:28.804Z,10.27
2022-09-25T05:38:57.496Z,9.73
2022-09-25T05:41:26.492Z,10.20
2022-09-25T05:43:55.129Z,10.93
2022-09-25T05:46:23.064Z,11.90
2022-09-25T05:48:51.195Z,11.10
2022-09-25T05:51:20.655Z,10.73
2022-09-25T05:53:48.534Z,10.40
2022-09-25T05:56:16.673Z,11.20
2022-09-25T05:58:44.935Z,10.80
2022-09-25T06:01:13.012Z,10.70
2022-09-25T06:03:40.947Z,10.83
2022-09-25T06:06:08.888Z,11.33
2022-09-25T06:08:38.673Z,11.07
2022-09-25T06:11:07.793Z,11.77
2022-09-25T06:13:36.938Z,11.70
2022-09-25T06:16:05.947Z,11.30
2022-09-25T06:18:34.218Z,11.53
2022-09-25T06:21:04.104Z,11.80
2022-09-25T06:23:32.493Z,11.53
2022-09-25T06:26:17.706Z,13.20
2022-09-25T06:28:46.061Z,12.10
2022-09-25T06:31:14.097Z,10.67
2022-09-25T06:33:41.989Z,11.33
2022-09-25T06:36:09.814Z,11.80
2022-09-25T06:38:37.630Z,12.23
2022-09-25T06:41:06.927Z,11.17
2022-09-25T06:43:34.798Z,11.73
2022-09-25T06:46:03.943Z,12.10
2022-09-25T06:48:32.182Z,13.03
2022-09-25T06:51:01.827Z,12.40
2022-09-25T06:53:30.280Z,12.33
2022-09-25T06:55:59.675Z,12.10
2022-09-25T06:58:30.775Z,12.50
2022-09-25T07:00:58.986Z,12.83
2022-09-25T07:03:44.599Z,11.90
2022-09-25T07:06:14.601Z,12.40
2022-09-25T07:08:43.761Z,12.37
2022-09-25T07:11:14.649Z,12.80
2022-09-25T07:13:44.883Z,12.23
2022-09-25T07:16:14.896Z,12.47
2022-09-25T07:18:43.704Z,11.57
2022-09-25T07:21:13.712Z,11.73
2022-09-25T07:23:42.830Z,11.93
2022-09-25T07:26:13.100Z,10.77
2022-09-25T07:28:44.473Z,12.27
2022-09-25T07:31:14.276Z,10.10
2022-09-25T07:33:42.440Z,9.73
2022-09-25T07:36:10.680Z,10.20
2022-09-25T07:38:39.315Z,9.97
2022-09-25T07:41:09.049Z,9.90
2022-09-25T07:43:38.190Z,8.90
2022-09-25T07:46:08.152Z,9.60
2022-09-25T07:48:36.313Z,10.03
2022-09-25T07:51:06.644Z,10.07
2022-09-25T07:53:34.553Z,9.00
2022-09-25T07:56:06.916Z,7.87
2022-09-25T07:58:35.950Z,9.17
2022-09-25T08:01:05.798Z,9.43
2022-09-25T08:03:35.436Z,9.27
2022-09-25T08:06:05.948Z,9.87
2022-09-25T08:08:35.488Z,9.67
2022-09-25T08:11:04.307Z,9.03
2022-09-25T08:13:33.588Z,9.17
2022-09-25T08:16:03.210Z,8.50
2022-09-25T08:18:31.188Z,7.80
2022-09-25T08:21:03.827Z,7.77
2022-09-25T08:23:32.711Z,7.20
2022-09-25T08:26:01.902Z,7.63
2022-09-25T08:28:30.074Z,8.07
2022-09-25T08:30:59.884Z,7.33
2022-09-25T08:33:28.424Z,8.00
2022-09-25T08:35:57.552Z,7.73
2022-09-25T08:38:27.472Z,6.97
2022-09-25T08:41:00.075Z,7.20
2022-09-25T08:43:29.043Z,7.13
2022-09-25T08:46:18.593Z,7.50
2022-09-25T08:49:03.375Z,7.37
2022-09-25T08:51:33.396Z,7.80
2022-09-25T08:54:04.323Z,7.43
2022-09-25T08:56:35.665Z,7.07
2022-09-25T08:59:09.751Z,7.50
2022-09-25T09:01:45.165Z,7.53
2022-09-25T09:04:20.133Z,7.00
2022-09-25T09:07:08.223Z,7.43
2022-09-25T09:09:43.363Z,7.33
2022-09-25T09:12:15.585Z,7.07
2022-09-25T09:14:46.368Z,7.33
2022-09-25T09:17:19.198Z,7.07
2022-09-25T09:19:53.276Z,7.67
2022-09-25T09:22:28.123Z,6.70
2022-09-25T09:25:05.103Z,7.03
2022-09-25T09:27:53.218Z,7.10
2022-09-25T09:30:26.445Z,7.27
2022-09-25T09:33:17.369Z,7.27
2022-09-25T09:35:52.804Z,7.63
2022-09-25T09:38:31.358Z,7.53
2022-09-25T09:41:18.245Z,7.30
2022-09-25T09:44:12.038Z,7.13
2022-09-25T09:46:48.722Z,6.50
2022-09-25T09:49:21.852Z,8.13
2022-09-25T09:51:53.805Z,7.33
2022-09-25T09:54:26.940Z,7.67
2022-09-25T09:56:58.697Z,6.80
2022-09-25T09:59:31.389Z,7.33
2022-09-25T10:02:04.519Z,6.90
2022-09-25T10:04:37.242Z,7.70
2022-09-25T10:07:09.109Z,7.97
2022-09-25T10:09:37.661Z,8.00
2022-09-25T10:12:14.624Z,8.03
2022-09-25T10:14:46.731Z,8.43
2022-09-25T10:17:15.604Z,8.30
2022-09-25T10:19:50.231Z,7.60
2022-09-25T10:22:21.969Z,7.70
2022-09-25T10:24:53.084Z,8.13
2022-09-25T10:27:27.997Z,7.70
2022-09-25T10:30:20.382Z,8.00
2022-09-25T10:32:58.236Z,8.27
2022-09-25T10:35:29.860Z,8.47
2022-09-25T10:38:01.237Z,9.10
2022-09-25T10:40:33.417Z,9.33
2022-09-25T10:43:16.380Z,11.27
2022-09-25T10:45:44.518Z,9.70
2022-09-25T10:48:49.935Z,9.57
2022-09-25T10:51:19.869Z,9.77
2022-09-25T10:53:48.831Z,11.57
2022-09-25T10:56:21.512Z,10.93
2022-09-25T10:58:54.959Z,11.70
2022-09-25T11:01:30.894Z,12.93
2022-09-25T11:03:59.727Z,54.73
2022-09-25T11:06:30.420Z,15.33
2022-09-25T11:09:10.204Z,14.23
2022-09-25T11:11:40.971Z,17.17
2022-09-25T11:14:22.480Z,14.27
2022-09-25T11:16:53.793Z,19.37
2022-09-25T11:19:28.929Z,14.50
2022-09-25T11:22:07.909Z,13.83
2022-09-25T11:24:50.748Z,14.07
2022-09-25T11:27:22.777Z,13.60
2022-09-25T11:30:02.479Z,14.53
2022-09-25T11:32:36.850Z,18.03
2022-09-25T11:35:20.473Z,13.67
2022-09-25T11:38:02.211Z,15.27
2022-09-25T11:41:03.072Z,14.17
2022-09-25T11:43:43.505Z,13.83
2022-09-25T11:46:23.164Z,13.83
2022-09-25T11:49:12.305Z,13.40
2022-09-25T11:52:05.209Z,14.10
2022-09-25T11:54:46.103Z,13.20
2022-09-25T11:57:20.797Z,13.63
2022-09-25T12:00:05.262Z,13.47
2022-09-25T12:02:50.260Z,12.83
2022-09-25T12:05:39.814Z,13.00
2022-09-25T12:08:24.324Z,12.40
2022-09-25T12:11:01.673Z,12.67
2022-09-25T12:13:41.150Z,12.90
2022-09-25T12:16:20.007Z,11.43
2022-09-25T12:19:01.260Z,11.97
2022-09-25T12:21:38.928Z,12.00
2022-09-25T12:24:16.083Z,12.33
2022-09-25T12:26:52.733Z,11.43
2022-09-25T12:29:39.478Z,11.67
2022-09-25T12:32:16.037Z,11.60
2022-09-25T12:35:07.538Z,10.90
2022-09-25T12:37:43.712Z,11.53
2022-09-25T12:40:18.640Z,11.57
2022-09-25T12:42:51.395Z,11.33
2022-09-25T12:45:25.634Z,11.90
2022-09-25T12:48:07.600Z,11.50
2022-09-25T12:50:42.274Z,11.07
2022-09-25T12:53:26.493Z,9.97
2022-09-25T12:56:01.129Z,10.43
2022-09-25T12:58:45.619Z,10.07
2022-09-25T13:01:20.361Z,8.93
2022-09-25T13:03:54.439Z,8.57
2022-09-25T13:06:32.509Z,8.97
2022-09-25T13:09:12.160Z,8.60
2022-09-25T13:11:46.522Z,7.90
2022-09-25T13:14:27.439Z,9.80
2022-09-25T13:16:55.844Z,7.50
2022-09-25T13:19:26.441Z,8.10
2022-09-25T13:22:07.071Z,8.27
2022-09-25T13:24:43.779Z,8.33
2022-09-25T13:27:18.916Z,8.60
2022-09-25T13:29:57.699Z,7.83
2022-09-25T13:32:29.403Z,8.70
2022-09-25T13:35:01.481Z,8.87
2022-09-25T13:37:34.283Z,8.63
2022-09-25T13:40:25.950Z,9.03
2022-09-25T13:42:55.493Z,9.13
2022-09-25T13:45:33.407Z,8.50
2022-09-25T13:48:10.318Z,8.40
2022-09-25T13:50:40.833Z,8.60
2022-09-25T13:53:48.939Z,8.17
2022-09-25T13:56:46.931Z,7.63
2022-09-25T13:59:36.247Z,7.73
2022-09-25T14:02:47.484Z,7.50
2022-09-25T14:05:19.025Z,7.20
2022-09-25T14:07:49.892Z,7.07
2022-09-25T14:10:20.259Z,7.20
2022-09-25T14:12:50.237Z,6.87
2022-09-25T14:15:27.935Z,6.80
2022-09-25T14:17:58.863Z,6.37
2022-09-25T14:20:38.164Z,6.20
2022-09-25T14:23:13.009Z,7.03
2022-09-25T14:25:44.849Z,6.60
2022-09-25T14:28:22.682Z,7.03
2022-09-25T14:31:07.279Z,6.87
2022-09-25T14:33:49.203Z,7.10
2022-09-25T14:36:23.857Z,7.37
2022-09-25T14:39:14.516Z,5.20
2022-09-25T14:42:23.254Z,5.27
2022-09-25T14:45:14.215Z,4.80
2022-09-25T14:47:45.047Z,5.10
2022-09-25T14:50:21.571Z,4.97
2022-09-25T14:52:50.463Z,5.10
2022-09-25T14:55:21.151Z,5.27
2022-09-25T14:57:52.092Z,5.47
2022-09-25T15:00:24.491Z,5.10
2022-09-25T15:02:54.736Z,4.80
2022-09-25T15:05:31.743Z,5.07
2022-09-25T15:08:02.244Z,4.47
2022-09-25T15:10:32.314Z,4.60
2022-09-25T15:13:13.439Z,5.00
2022-09-25T15:16:01.747Z,5.23
2022-09-25T15:18:29.830Z,5.30
2022-09-25T15:20:58.527Z,4.60
2022-09-25T15:23:27.415Z,4.40
2022-09-25T15:25:58.833Z,4.47
2022-09-25T15:28:28.926Z,4.00
2022-09-25T15:30:59.280Z,5.03
2022-09-25T15:33:30.103Z,5.33
2022-09-25T15:35:59.219Z,5.70
2022-09-25T15:38:31.014Z,5.80
2022-09-25T15:41:00.145Z,6.30
2022-09-25T15:43:29.951Z,6.87
2022-09-25T15:45:59.849Z,7.27
2022-09-25T15:48:32.707Z,7.30
2022-09-25T15:51:02.683Z,6.67
2022-09-25T15:53:33.134Z,6.20
2022-09-25T15:56:12.581Z,6.40
2022-09-25T15:58:47.143Z,5.70
2022-09-25T16:01:34.955Z,5.17
2022-09-25T16:04:23.926Z,3.53
2022-09-25T16:06:51.901Z,3.10
2022-09-25T16:09:32.297Z,2.90
2022-09-25T16:12:22.116Z,2.40
2022-09-25T16:14:51.775Z,2.30
2022-09-25T16:17:33.137Z,1.87
2022-09-25T16:20:08.540Z,1.73
2022-09-25T16:22:46.957Z,1.87
2022-09-25T16:25:24.588Z,1.50
2022-09-25T16:27:55.001Z,1.67
2022-09-25T16:30:25.055Z,1.50
2022-09-25T16:32:55.047Z,1.67
2022-09-25T16:35:40.612Z,2.10
2022-09-25T16:38:27.573Z,2.10
2022-09-25T16:41:04.421Z,2.40
2022-09-25T16:43:35.007Z,2.50
2022-09-25T16:46:13.625Z,2.43
2022-09-25T16:48:42.710Z,2.57
2022-09-25T16:51:15.357Z,3.40
2022-09-25T16:53:44.769Z,3.60
2022-09-25T16:56:21.400Z,4.30
2022-09-25T16:58:49.396Z,3.80
2022-09-25T17:01:19.365Z,3.13
2022-09-25T17:03:50.944Z,2.70
2022-09-25T17:06:19.308Z,1.90
2022-09-25T17:08:47.502Z,2.83
2022-09-25T17:11:16.438Z,3.20
2022-09-25T17:13:44.551Z,4.10
2022-09-25T17:16:13.488Z,3.43
2022-09-25T17:18:43.126Z,3.40
2022-09-25T17:21:15.015Z,4.30
2022-09-25T17:23:43.825Z,6.10
2022-09-25T17:26:17.514Z,6.60
2022-09-25T17:28:45.450Z,6.37
2022-09-25T17:31:15.556Z,6.80
2022-09-25T17:33:45.036Z,6.73
2022-09-25T17:36:14.165Z,7.80
2022-09-25T17:38:42.118Z,7.23
2022-09-25T17:41:19.533Z,7.43
2022-09-25T17:43:47.877Z,7.33
2022-09-25T17:46:19.219Z,7.10
2022-09-25T17:48:53.865Z,7.63
2022-09-25T17:51:24.419Z,7.70
2022-09-25T17:53:53.669Z,7.47
2022-09-25T17:56:21.908Z,7.57
2022-09-25T17:58:51.104Z,7.77
2022-09-25T18:01:22.742Z,7.70
2022-09-25T18:03:53.334Z,8.50
2022-09-25T18:06:21.804Z,8.67
2022-09-25T18:08:50.848Z,9.30
2022-09-25T18:11:19.065Z,9.50
2022-09-25T18:13:47.020Z,9.27
2022-09-25T18:16:17.035Z,9.03
2022-09-25T18:19:02.515Z,9.33
2022-09-25T18:21:50.052Z,9.13
2022-09-25T18:24:18.526Z,10.27
2022-09-25T18:26:46.834Z,10.40
2022-09-25T18:29:16.761Z,10.80
2022-09-25T18:31:45.135Z,11.67
2022-09-25T18:34:13.439Z,11.23
2022-09-25T18:36:43.055Z,11.57
2022-09-25T18:39:13.833Z,12.20
2022-09-25T18:41:44.012Z,11.77
2022-09-25T18:44:13.235Z,11.27
2022-09-25T18:46:41.590Z,11.63
2022-09-25T18:49:10.797Z,11.50
2022-09-25T18:51:38.720Z,11.43
2022-09-25T18:54:09.735Z,12.20
2022-09-25T18:56:37.829Z,11.67
2022-09-25T18:59:06.599Z,12.10
2022-09-25T19:01:35.207Z,12.13
2022-09-25T19:04:03.694Z,11.67
2022-09-25T19:06:32.243Z,11.27
2022-09-25T19:09:01.208Z,11.90
2022-09-25T19:11:30.428Z,11.63
2022-09-25T19:13:58.299Z,11.47
2022-09-25T19:16:26.349Z,12.23
2022-09-25T19:18:55.002Z,11.33
2022-09-25T19:21:24.486Z,12.77
2022-09-25T19:23:53.088Z,12.93
2022-09-25T19:26:25.658Z,12.43
2022-09-25T19:28:55.837Z,12.97
2022-09-25T19:31:25.059Z,12.47
2022-09-25T19:33:53.647Z,13.33
2022-09-25T19:36:24.160Z,12.57
2022-09-25T19:38:52.996Z,11.20
2022-09-25T19:41:24.801Z,11.67
2022-09-25T19:43:54.382Z,11.87
2022-09-25T19:46:22.862Z,12.17
2022-09-25T19:48:51.503Z,10.83
2022-09-25T19:51:22.507Z,11.20
2022-09-25T19:53:51.210Z,11.40
2022-09-25T19:56:20.078Z,10.13
2022-09-25T19:58:49.678Z,10.47
2022-09-25T20:01:20.640Z,10.97
2022-09-25T20:03:49.100Z,11.40
2022-09-25T20:06:17.438Z,11.50
2022-09-25T20:08:46.085Z,10.80
2022-09-25T20:11:16.837Z,10.67
2022-09-25T20:13:45.392Z,10.10
2022-09-25T20:16:15.214Z,10.43
2022-09-25T20:18:48.147Z,9.50
2022-09-25T20:21:17.539Z,10.10
2022-09-25T20:23:45.664Z,9.33
2022-09-25T20:26:16.601Z,8.90
2022-09-25T20:28:45.496Z,9.30
2022-09-25T20:31:15.423Z,8.63
2022-09-25T20:33:44.807Z,8.70
2022-09-25T20:36:14.996Z,8.50
2022-09-25T20:38:45.131Z,8.53
2022-09-25T20:41:14.155Z,9.10
2022-09-25T20:43:44.019Z,8.27
2022-09-25T20:46:14.260Z,8.37
2022-09-25T20:48:45.770Z,8.30
2022-09-25T20:51:16.061Z,8.53
2022-09-25T20:53:44.948Z,8.10
2022-09-25T20:56:14.255Z,8.30
2022-09-25T20:58:44.030Z,8.13
2022-09-25T21:01:15.093Z,7.93
2022-09-25T21:03:46.270Z,8.20
2022-09-25T21:06:16.220Z,7.70
2022-09-25T21:08:44.785Z,7.90
2022-09-25T21:11:13.729Z,7.63
2022-09-25T21:13:42.299Z,9.03
2022-09-25T21:16:12.682Z,7.70
2022-09-25T21:18:41.850Z,7.27
2022-09-25T21:21:12.729Z,6.93
2022-09-25T21:23:41.603Z,7.00
2022-09-25T21:26:11.695Z,7.17
2022-09-25T21:28:41.400Z,6.63
2022-09-25T21:31:12.276Z,6.77
2022-09-25T21:33:41.157Z,6.13
2022-09-25T21:36:12.453Z,6.20
2022-09-25T21:38:40.622Z,6.30
2022-09-25T21:41:11.545Z,6.40
2022-09-25T21:43:40.042Z,6.50
2022-09-25T21:46:09.281Z,5.93
2022-09-25T21:48:38.354Z,6.07
2022-09-25T21:51:08.776Z,6.40
2022-09-25T21:53:38.683Z,6.80
2022-09-25T21:56:08.727Z,6.87
2022-09-25T21:58:37.553Z,6.80
2022-09-25T22:01:07.179Z,6.50
2022-09-25T22:03:36.934Z,7.27
2022-09-25T22:06:07.491Z,7.10
2022-09-25T22:08:37.963Z,6.93
2022-09-25T22:11:07.862Z,7.40
2022-09-25T22:13:41.795Z,7.00
2022-09-25T22:16:11.870Z,7.00
2022-09-25T22:18:43.205Z,7.20
2022-09-25T22:21:11.619Z,7.10
2022-09-25T22:23:40.856Z,7.30
2022-09-25T22:26:09.055Z,6.47
2022-09-25T22:28:37.748Z,7.13
2022-09-25T22:31:06.891Z,7.33
2022-09-25T22:33:35.315Z,6.77
2022-09-25T22:36:05.508Z,6.80
2022-09-25T22:38:34.184Z,6.77
2022-09-25T22:41:06.506Z,6.77
2022-09-25T22:43:34.954Z,7.17
2022-09-25T22:46:02.896Z,7.40
2022-09-25T22:48:30.901Z,6.03
2022-09-25T22:51:00.895Z,6.60
2022-09-25T22:53:31.003Z,6.30
2022-09-25T22:56:10.861Z,6.60
2022-09-25T22:58:39.102Z,7.23
2022-09-25T23:01:10.544Z,6.57
2022-09-25T23:03:38.495Z,8.07
2022-09-25T23:06:06.856Z,6.77
2022-09-25T23:08:34.966Z,8.00
2022-09-25T23:11:07.626Z,7.23
2022-09-25T23:13:37.475Z,6.37
2022-09-25T23:16:07.548Z,6.03
2022-09-25T23:18:36.572Z,6.13
2022-09-25T23:21:04.815Z,5.63
2022-09-25T23:23:33.473Z,5.33
2022-09-25T23:26:06.790Z,6.03
2022-09-25T23:28:35.487Z,5.70
2022-09-25T23:31:10.421Z,5.80
2022-09-25T23:33:39.524Z,5.30
2022-09-25T23:36:08.879Z,5.00
2022-09-25T23:38:37.653Z,5.80
2022-09-25T23:41:14.853Z,5.40
2022-09-25T23:43:43.140Z,5.43
2022-09-25T23:46:13.330Z,5.50
2022-09-25T23:48:41.272Z,5.60
2022-09-25T23:51:09.462Z,5.33
2022-09-25T23:53:37.872Z,5.30
2022-09-25T23:56:07.948Z,5.97
2022-09-25T23:58:36.118Z,5.77
